sensor_id;sensor_type;location;lat;lon;timestamp;P1;durP1;ratioP1;P2;durP2;ratioP2
1785;SDS011;890;48.158;11.540;2024-01-27T00:01:22;3.20;;;2.13;;
1785;SDS011;890;48.158;11.540;2024-01-27T00:03:47;4.37;;;2.43;;
1785;SDS011;890;48.158;11.540;2024-01-27T00:06:14;3.63;;;2.83;;
1785;SDS011;890;48.158;11.540;2024-01-27T00:08:40;3.90;;;2.50;;
1785;SDS011;890;48.158;11.540;2024-01-27T00:11:06;3.87;;;2.20;;
1785;SDS011;890;48.158;11.540;2024-01-27T00:13:32;1294.07;;;999.90;;
1785;SDS011;890;48.158;11.540;2024-01-27T00:15:57;964.67;;;902.00;;
1785;SDS011;890;48.158;11.540;2024-01-27T00:18:23;1012.70;;;948.37;;
1785;SDS011;890;48.158;11.540;2024-01-27T00:20:48;1015.77;;;951.27;;
1785;SDS011;890;48.158;11.540;2024-01-27T00:23:14;1148.63;;;999.90;;
1785;SDS011;890;48.158;11.540;2024-01-27T00:25:40;1004.83;;;940.93;;
1785;SDS011;890;48.158;11.540;2024-01-27T00:28:05;982.30;;;918.07;;
1785;SDS011;890;48.158;11.540;2024-01-27T00:30:31;999.97;;;936.77;;
1785;SDS011;890;48.158;11.540;2024-01-27T00:32:56;966.53;;;903.67;;
1785;SDS011;890;48.158;11.540;2024-01-27T00:35:22;945.50;;;883.93;;
1785;SDS011;890;48.158;11.540;2024-01-27T00:37:48;1017.03;;;950.40;;
1785;SDS011;890;48.158;11.540;2024-01-27T00:40:14;977.30;;;913.97;;
1785;SDS011;890;48.158;11.540;2024-01-27T00:42:40;970.30;;;908.63;;
1785;SDS011;890;48.158;11.540;2024-01-27T00:45:06;938.08;;;875.85;;
1785;SDS011;890;48.158;11.540;2024-01-27T00:47:32;1003.25;;;938.20;;
1785;SDS011;890;48.158;11.540;2024-01-27T00:49:57;1049.37;;;981.17;;
1785;SDS011;890;48.158;11.540;2024-01-27T00:52:23;1007.97;;;941.93;;
1785;SDS011;890;48.158;11.540;2024-01-27T00:54:49;973.40;;;908.73;;
1785;SDS011;890;48.158;11.540;2024-01-27T00:57:14;953.83;;;891.57;;
1785;SDS011;890;48.158;11.540;2024-01-27T00:59:40;984.50;;;920.75;;
1785;SDS011;890;48.158;11.540;2024-01-27T01:02:06;946.57;;;882.47;;
1785;SDS011;890;48.158;11.540;2024-01-27T01:04:32;1041.67;;;971.77;;
1785;SDS011;890;48.158;11.540;2024-01-27T01:06:58;1005.05;;;938.03;;
1785;SDS011;890;48.158;11.540;2024-01-27T01:09:24;1064.05;;;987.33;;
1785;SDS011;890;48.158;11.540;2024-01-27T01:11:50;1051.50;;;979.73;;
1785;SDS011;890;48.158;11.540;2024-01-27T01:14:15;1008.03;;;940.63;;
1785;SDS011;890;48.158;11.540;2024-01-27T01:16:41;1146.50;;;999.90;;
1785;SDS011;890;48.158;11.540;2024-01-27T01:19:07;1155.30;;;999.90;;
1785;SDS011;890;48.158;11.540;2024-01-27T01:21:32;1129.97;;;999.90;;
1785;SDS011;890;48.158;11.540;2024-01-27T01:23:58;1099.47;;;999.90;;
1785;SDS011;890;48.158;11.540;2024-01-27T01:26:24;1031.57;;;963.50;;
1785;SDS011;890;48.158;11.540;2024-01-27T01:28:50;1053.00;;;980.03;;
1785;SDS011;890;48.158;11.540;2024-01-27T01:31:16;1060.45;;;986.30;;
1785;SDS011;890;48.158;11.540;2024-01-27T01:33:44;1027.43;;;959.50;;
1785;SDS011;890;48.158;11.540;2024-01-27T01:36:10;1030.82;;;963.63;;
1785;SDS011;890;48.158;11.540;2024-01-27T01:38:35;1078.43;;;995.57;;
1785;SDS011;890;48.158;11.540;2024-01-27T01:41:01;1044.23;;;974.70;;
1785;SDS011;890;48.158;11.540;2024-01-27T01:43:27;1011.40;;;945.70;;
1785;SDS011;890;48.158;11.540;2024-01-27T01:45:52;1002.27;;;936.13;;
1785;SDS011;890;48.158;11.540;2024-01-27T01:48:19;1081.97;;;994.92;;
1785;SDS011;890;48.158;11.540;2024-01-27T01:50:46;1018.65;;;952.45;;
1785;SDS011;890;48.158;11.540;2024-01-27T01:53:12;1044.82;;;972.40;;
1785;SDS011;890;48.158;11.540;2024-01-27T01:55:38;1044.78;;;972.60;;
1785;SDS011;890;48.158;11.540;2024-01-27T01:58:05;1384.63;;;999.90;;
1785;SDS011;890;48.158;11.540;2024-01-27T02:00:31;1326.30;;;999.90;;
1785;SDS011;890;48.158;11.540;2024-01-27T02:02:57;1198.50;;;999.90;;
1785;SDS011;890;48.158;11.540;2024-01-27T02:05:23;1391.60;;;999.90;;
1785;SDS011;890;48.158;11.540;2024-01-27T02:07:48;1282.10;;;999.90;;
1785;SDS011;890;48.158;11.540;2024-01-27T02:10:15;1273.63;;;999.90;;
1785;SDS011;890;48.158;11.540;2024-01-27T02:12:42;1220.80;;;999.90;;
1785;SDS011;890;48.158;11.540;2024-01-27T02:15:12;1260.47;;;999.90;;
1785;SDS011;890;48.158;11.540;2024-01-27T02:17:38;1337.65;;;999.90;;
1785;SDS011;890;48.158;11.540;2024-01-27T02:20:05;1313.95;;;999.90;;
1785;SDS011;890;48.158;11.540;2024-01-27T02:22:35;1327.38;;;999.90;;
1785;SDS011;890;48.158;11.540;2024-01-27T02:25:04;1297.85;;;999.90;;
1785;SDS011;890;48.158;11.540;2024-01-27T02:27:30;1321.10;;;999.90;;
1785;SDS011;890;48.158;11.540;2024-01-27T02:29:56;1315.63;;;999.90;;
1785;SDS011;890;48.158;11.540;2024-01-27T02:32:21;1296.03;;;999.90;;
1785;SDS011;890;48.158;11.540;2024-01-27T02:34:47;1248.77;;;999.90;;
1785;SDS011;890;48.158;11.540;2024-01-27T02:37:12;1287.33;;;999.90;;
1785;SDS011;890;48.158;11.540;2024-01-27T02:39:39;1221.13;;;999.90;;
1785;SDS011;890;48.158;11.540;2024-01-27T02:42:05;1181.32;;;999.90;;
1785;SDS011;890;48.158;11.540;2024-01-27T02:44:31;1233.43;;;999.90;;
1785;SDS011;890;48.158;11.540;2024-01-27T02:46:57;1193.47;;;999.90;;
1785;SDS011;890;48.158;11.540;2024-01-27T02:49:22;1216.17;;;999.90;;
1785;SDS011;890;48.158;11.540;2024-01-27T02:51:48;1245.53;;;999.90;;
1785;SDS011;890;48.158;11.540;2024-01-27T02:54:14;1256.47;;;999.90;;
1785;SDS011;890;48.158;11.540;2024-01-27T02:56:40;1082.87;;;997.60;;
1785;SDS011;890;48.158;11.540;2024-01-27T02:59:05;1165.13;;;999.90;;
1785;SDS011;890;48.158;11.540;2024-01-27T03:01:31;1067.20;;;990.50;;
1785;SDS011;890;48.158;11.540;2024-01-27T03:03:57;1097.27;;;999.37;;
1785;SDS011;890;48.158;11.540;2024-01-27T03:06:23;1157.17;;;999.90;;
1785;SDS011;890;48.158;11.540;2024-01-27T03:08:48;1210.70;;;999.90;;
1785;SDS011;890;48.158;11.540;2024-01-27T03:11:14;1144.93;;;999.90;;
1785;SDS011;890;48.158;11.540;2024-01-27T03:13:39;1187.17;;;999.90;;
1785;SDS011;890;48.158;11.540;2024-01-27T03:16:10;1196.22;;;999.90;;
1785;SDS011;890;48.158;11.540;2024-01-27T03:18:36;1095.78;;;997.85;;
1785;SDS011;890;48.158;11.540;2024-01-27T03:21:02;1217.82;;;999.90;;
1785;SDS011;890;48.158;11.540;2024-01-27T03:23:28;1185.70;;;999.90;;
1785;SDS011;890;48.158;11.540;2024-01-27T03:25:53;1165.07;;;999.90;;
1785;SDS011;890;48.158;11.540;2024-01-27T03:28:19;1174.90;;;999.90;;
1785;SDS011;890;48.158;11.540;2024-01-27T03:30:45;1082.03;;;996.17;;
1785;SDS011;890;48.158;11.540;2024-01-27T03:33:11;1098.90;;;999.90;;
1785;SDS011;890;48.158;11.540;2024-01-27T03:35:38;1065.50;;;990.33;;
1785;SDS011;890;48.158;11.540;2024-01-27T03:38:07;1108.57;;;999.90;;
1785;SDS011;890;48.158;11.540;2024-01-27T03:40:33;1014.00;;;946.27;;
1785;SDS011;890;48.158;11.540;2024-01-27T03:42:58;1062.97;;;986.57;;
1785;SDS011;890;48.158;11.540;2024-01-27T03:45:24;1116.67;;;999.90;;
1785;SDS011;890;48.158;11.540;2024-01-27T03:47:49;1113.23;;;999.90;;
1785;SDS011;890;48.158;11.540;2024-01-27T03:50:15;1093.03;;;999.90;;
1785;SDS011;890;48.158;11.540;2024-01-27T03:52:41;1080.33;;;995.23;;
1785;SDS011;890;48.158;11.540;2024-01-27T03:55:07;981.40;;;907.93;;
1785;SDS011;890;48.158;11.540;2024-01-27T03:57:32;1113.70;;;999.90;;
1785;SDS011;890;48.158;11.540;2024-01-27T03:59:58;1146.90;;;999.90;;
1785;SDS011;890;48.158;11.540;2024-01-27T04:02:24;565.67;;;512.93;;
1785;SDS011;890;48.158;11.540;2024-01-27T04:04:49;559.00;;;505.93;;
1785;SDS011;890;48.158;11.540;2024-01-27T04:07:15;237.43;;;124.70;;
1785;SDS011;890;48.158;11.540;2024-01-27T04:09:41;1056.43;;;982.97;;
1785;SDS011;890;48.158;11.540;2024-01-27T04:12:07;1181.75;;;999.90;;
1785;SDS011;890;48.158;11.540;2024-01-27T04:14:32;839.07;;;770.60;;
1785;SDS011;890;48.158;11.540;2024-01-27T04:16:58;1289.85;;;999.90;;
1785;SDS011;890;48.158;11.540;2024-01-27T04:19:24;1302.17;;;999.90;;
1785;SDS011;890;48.158;11.540;2024-01-27T04:21:50;1.20;;;0.53;;
1785;SDS011;890;48.158;11.540;2024-01-27T04:24:15;68.70;;;48.80;;
1785;SDS011;890;48.158;11.540;2024-01-27T04:26:41;1038.27;;;934.27;;
1785;SDS011;890;48.158;11.540;2024-01-27T04:29:06;1325.70;;;999.90;;
1785;SDS011;890;48.158;11.540;2024-01-27T04:31:33;1329.70;;;999.90;;
1785;SDS011;890;48.158;11.540;2024-01-27T04:33:59;1328.90;;;999.90;;
1785;SDS011;890;48.158;11.540;2024-01-27T04:36:25;1404.45;;;999.90;;
1785;SDS011;890;48.158;11.540;2024-01-27T04:38:54;1330.38;;;999.90;;
1785;SDS011;890;48.158;11.540;2024-01-27T04:41:20;1120.53;;;999.90;;
1785;SDS011;890;48.158;11.540;2024-01-27T04:43:46;321.63;;;228.63;;
1785;SDS011;890;48.158;11.540;2024-01-27T04:46:11;1406.00;;;999.90;;
1785;SDS011;890;48.158;11.540;2024-01-27T04:48:37;1465.53;;;999.90;;
1785;SDS011;890;48.158;11.540;2024-01-27T04:51:03;1440.93;;;999.90;;
1785;SDS011;890;48.158;11.540;2024-01-27T04:53:28;1419.03;;;999.90;;
1785;SDS011;890;48.158;11.540;2024-01-27T04:55:54;1310.40;;;999.90;;
1785;SDS011;890;48.158;11.540;2024-01-27T04:58:20;1311.37;;;999.90;;
1785;SDS011;890;48.158;11.540;2024-01-27T05:00:45;1425.10;;;999.90;;
1785;SDS011;890;48.158;11.540;2024-01-27T05:03:11;1409.97;;;999.90;;
1785;SDS011;890;48.158;11.540;2024-01-27T05:05:42;1410.97;;;999.90;;
1785;SDS011;890;48.158;11.540;2024-01-27T05:08:08;1461.55;;;999.90;;
1785;SDS011;890;48.158;11.540;2024-01-27T05:10:34;1213.60;;;999.90;;
1785;SDS011;890;48.158;11.540;2024-01-27T05:13:01;1479.72;;;999.90;;
1785;SDS011;890;48.158;11.540;2024-01-27T05:15:27;1479.83;;;999.90;;
1785;SDS011;890;48.158;11.540;2024-01-27T05:17:53;615.10;;;541.10;;
1785;SDS011;890;48.158;11.540;2024-01-27T05:20:19;466.27;;;336.37;;
1785;SDS011;890;48.158;11.540;2024-01-27T05:22:44;1335.47;;;999.90;;
1785;SDS011;890;48.158;11.540;2024-01-27T05:25:11;1323.97;;;999.90;;
1785;SDS011;890;48.158;11.540;2024-01-27T05:27:39;1387.47;;;999.90;;
1785;SDS011;890;48.158;11.540;2024-01-27T05:30:05;4.80;;;3.00;;
1785;SDS011;890;48.158;11.540;2024-01-27T05:32:31;1441.45;;;999.90;;
1785;SDS011;890;48.158;11.540;2024-01-27T05:34:57;4.93;;;2.70;;
1785;SDS011;890;48.158;11.540;2024-01-27T05:37:23;7.20;;;3.40;;
1785;SDS011;890;48.158;11.540;2024-01-27T05:39:48;5.43;;;3.20;;
1785;SDS011;890;48.158;11.540;2024-01-27T05:42:14;5.97;;;3.40;;
1785;SDS011;890;48.158;11.540;2024-01-27T05:44:40;5.47;;;2.90;;
1785;SDS011;890;48.158;11.540;2024-01-27T05:47:05;5.83;;;3.30;;
1785;SDS011;890;48.158;11.540;2024-01-27T05:49:32;4.60;;;3.37;;
1785;SDS011;890;48.158;11.540;2024-01-27T05:51:57;5.37;;;3.27;;
1785;SDS011;890;48.158;11.540;2024-01-27T05:54:23;7.73;;;3.83;;
1785;SDS011;890;48.158;11.540;2024-01-27T05:56:49;6.37;;;3.20;;
1785;SDS011;890;48.158;11.540;2024-01-27T05:59:15;5.40;;;3.00;;
1785;SDS011;890;48.158;11.540;2024-01-27T06:01:41;5.83;;;3.67;;
1785;SDS011;890;48.158;11.540;2024-01-27T06:04:08;8.70;;;3.67;;
1785;SDS011;890;48.158;11.540;2024-01-27T06:06:34;3.20;;;2.90;;
1785;SDS011;890;48.158;11.540;2024-01-27T06:09:02;5.23;;;3.50;;
1785;SDS011;890;48.158;11.540;2024-01-27T06:11:28;5.90;;;4.30;;
1785;SDS011;890;48.158;11.540;2024-01-27T06:13:55;6.10;;;4.00;;
1785;SDS011;890;48.158;11.540;2024-01-27T06:16:21;5.13;;;3.50;;
1785;SDS011;890;48.158;11.540;2024-01-27T06:18:48;6.70;;;3.70;;
1785;SDS011;890;48.158;11.540;2024-01-27T06:21:14;4.33;;;3.33;;
1785;SDS011;890;48.158;11.540;2024-01-27T06:23:39;8.57;;;3.73;;
1785;SDS011;890;48.158;11.540;2024-01-27T06:26:08;7.07;;;3.93;;
1785;SDS011;890;48.158;11.540;2024-01-27T06:28:34;7.27;;;3.30;;
1785;SDS011;890;48.158;11.540;2024-01-27T06:31:01;128.00;;;115.93;;
1785;SDS011;890;48.158;11.540;2024-01-27T06:33:30;1264.07;;;999.90;;
1785;SDS011;890;48.158;11.540;2024-01-27T06:35:56;1165.28;;;987.70;;
1785;SDS011;890;48.158;11.540;2024-01-27T06:38:22;310.33;;;207.37;;
1785;SDS011;890;48.158;11.540;2024-01-27T06:40:48;1299.57;;;999.90;;
1785;SDS011;890;48.158;11.540;2024-01-27T06:43:13;1304.27;;;999.90;;
1785;SDS011;890;48.158;11.540;2024-01-27T06:45:39;530.43;;;494.33;;
1785;SDS011;890;48.158;11.540;2024-01-27T06:48:06;1331.47;;;999.90;;
1785;SDS011;890;48.158;11.540;2024-01-27T06:50:32;1149.85;;;999.90;;
1785;SDS011;890;48.158;11.540;2024-01-27T06:52:58;1348.47;;;999.90;;
1785;SDS011;890;48.158;11.540;2024-01-27T06:55:24;1421.40;;;999.90;;
1785;SDS011;890;48.158;11.540;2024-01-27T06:57:50;1349.40;;;999.90;;
1785;SDS011;890;48.158;11.540;2024-01-27T07:00:16;1355.77;;;999.90;;
1785;SDS011;890;48.158;11.540;2024-01-27T07:02:43;1354.13;;;999.90;;
1785;SDS011;890;48.158;11.540;2024-01-27T07:05:09;1254.20;;;999.90;;
1785;SDS011;890;48.158;11.540;2024-01-27T07:07:35;1278.07;;;999.90;;
1785;SDS011;890;48.158;11.540;2024-01-27T07:10:01;1321.28;;;999.90;;
1785;SDS011;890;48.158;11.540;2024-01-27T07:12:27;509.23;;;466.30;;
1785;SDS011;890;48.158;11.540;2024-01-27T07:14:52;228.63;;;211.33;;
1785;SDS011;890;48.158;11.540;2024-01-27T07:17:20;121.17;;;111.60;;
1785;SDS011;890;48.158;11.540;2024-01-27T07:19:45;205.33;;;185.50;;
1785;SDS011;890;48.158;11.540;2024-01-27T07:22:11;278.67;;;246.23;;
1785;SDS011;890;48.158;11.540;2024-01-27T07:24:37;369.63;;;338.70;;
1785;SDS011;890;48.158;11.540;2024-01-27T07:27:03;170.50;;;152.80;;
1785;SDS011;890;48.158;11.540;2024-01-27T07:29:28;266.70;;;241.63;;
1785;SDS011;890;48.158;11.540;2024-01-27T07:31:54;165.30;;;152.67;;
1785;SDS011;890;48.158;11.540;2024-01-27T07:34:20;8.83;;;4.83;;
1785;SDS011;890;48.158;11.540;2024-01-27T07:36:46;10.23;;;4.90;;
1785;SDS011;890;48.158;11.540;2024-01-27T07:39:14;8.73;;;4.40;;
1785;SDS011;890;48.158;11.540;2024-01-27T07:41:40;9.33;;;5.30;;
1785;SDS011;890;48.158;11.540;2024-01-27T07:44:09;8.83;;;5.80;;
1785;SDS011;890;48.158;11.540;2024-01-27T07:46:37;5.73;;;2.10;;
1785;SDS011;890;48.158;11.540;2024-01-27T07:49:03;10.87;;;3.87;;
1785;SDS011;890;48.158;11.540;2024-01-27T07:51:29;11.93;;;5.50;;
1785;SDS011;890;48.158;11.540;2024-01-27T07:53:55;10.17;;;5.73;;
1785;SDS011;890;48.158;11.540;2024-01-27T07:56:20;18.40;;;16.20;;
1785;SDS011;890;48.158;11.540;2024-01-27T07:58:46;38.33;;;22.33;;
1785;SDS011;890;48.158;11.540;2024-01-27T08:01:15;76.37;;;68.00;;
1785;SDS011;890;48.158;11.540;2024-01-27T08:03:41;145.87;;;135.83;;
1785;SDS011;890;48.158;11.540;2024-01-27T08:06:10;347.13;;;311.93;;
1785;SDS011;890;48.158;11.540;2024-01-27T08:08:39;114.63;;;83.20;;
1785;SDS011;890;48.158;11.540;2024-01-27T08:11:05;228.30;;;212.60;;
1785;SDS011;890;48.158;11.540;2024-01-27T08:13:31;187.63;;;157.03;;
1785;SDS011;890;48.158;11.540;2024-01-27T08:15:56;244.20;;;187.00;;
1785;SDS011;890;48.158;11.540;2024-01-27T08:18:22;402.87;;;290.53;;
1785;SDS011;890;48.158;11.540;2024-01-27T08:20:48;7.60;;;4.53;;
1785;SDS011;890;48.158;11.540;2024-01-27T08:23:14;6.37;;;4.70;;
1785;SDS011;890;48.158;11.540;2024-01-27T08:25:39;9.60;;;5.47;;
1785;SDS011;890;48.158;11.540;2024-01-27T08:28:06;7.90;;;5.20;;
1785;SDS011;890;48.158;11.540;2024-01-27T08:30:32;9.00;;;5.17;;
1785;SDS011;890;48.158;11.540;2024-01-27T08:32:57;7.13;;;4.87;;
1785;SDS011;890;48.158;11.540;2024-01-27T08:35:23;9.20;;;5.10;;
1785;SDS011;890;48.158;11.540;2024-01-27T08:37:48;7.13;;;4.80;;
1785;SDS011;890;48.158;11.540;2024-01-27T08:40:15;7.20;;;4.93;;
1785;SDS011;890;48.158;11.540;2024-01-27T08:42:42;9.00;;;5.23;;
1785;SDS011;890;48.158;11.540;2024-01-27T08:45:07;9.60;;;5.00;;
1785;SDS011;890;48.158;11.540;2024-01-27T08:47:33;12.00;;;5.73;;
1785;SDS011;890;48.158;11.540;2024-01-27T08:49:59;13.77;;;5.53;;
1785;SDS011;890;48.158;11.540;2024-01-27T08:52:25;8.77;;;4.93;;
1785;SDS011;890;48.158;11.540;2024-01-27T08:54:51;9.03;;;5.07;;
1785;SDS011;890;48.158;11.540;2024-01-27T08:57:16;10.03;;;6.00;;
1785;SDS011;890;48.158;11.540;2024-01-27T08:59:42;7.30;;;5.30;;
1785;SDS011;890;48.158;11.540;2024-01-27T09:02:08;10.43;;;6.53;;
1785;SDS011;890;48.158;11.540;2024-01-27T09:04:33;398.97;;;369.13;;
1785;SDS011;890;48.158;11.540;2024-01-27T09:06:59;677.50;;;628.00;;
1785;SDS011;890;48.158;11.540;2024-01-27T09:09:24;55.70;;;51.70;;
1785;SDS011;890;48.158;11.540;2024-01-27T09:11:51;518.73;;;479.47;;
1785;SDS011;890;48.158;11.540;2024-01-27T09:14:17;946.43;;;872.80;;
1785;SDS011;890;48.158;11.540;2024-01-27T09:16:42;1127.90;;;999.90;;
1785;SDS011;890;48.158;11.540;2024-01-27T09:19:08;1042.07;;;978.27;;
1785;SDS011;890;48.158;11.540;2024-01-27T09:21:33;931.23;;;872.20;;
1785;SDS011;890;48.158;11.540;2024-01-27T09:23:59;866.73;;;812.77;;
1785;SDS011;890;48.158;11.540;2024-01-27T09:26:27;380.40;;;346.17;;
1785;SDS011;890;48.158;11.540;2024-01-27T09:28:52;811.43;;;756.07;;
1785;SDS011;890;48.158;11.540;2024-01-27T09:31:23;606.27;;;556.60;;
1785;SDS011;890;48.158;11.540;2024-01-27T09:33:53;707.93;;;657.50;;
1785;SDS011;890;48.158;11.540;2024-01-27T09:36:19;698.80;;;645.90;;
1785;SDS011;890;48.158;11.540;2024-01-27T09:38:45;736.10;;;685.40;;
1785;SDS011;890;48.158;11.540;2024-01-27T09:41:14;729.53;;;677.33;;
1785;SDS011;890;48.158;11.540;2024-01-27T09:43:44;715.80;;;664.37;;
1785;SDS011;890;48.158;11.540;2024-01-27T09:46:14;592.27;;;543.07;;
1785;SDS011;890;48.158;11.540;2024-01-27T09:48:40;646.90;;;596.37;;
1785;SDS011;890;48.158;11.540;2024-01-27T09:51:07;594.73;;;545.33;;
1785;SDS011;890;48.158;11.540;2024-01-27T09:53:35;510.67;;;462.87;;
1785;SDS011;890;48.158;11.540;2024-01-27T09:56:01;672.53;;;623.87;;
1785;SDS011;890;48.158;11.540;2024-01-27T09:58:28;572.60;;;531.13;;
1785;SDS011;890;48.158;11.540;2024-01-27T10:00:55;828.63;;;776.33;;
1785;SDS011;890;48.158;11.540;2024-01-27T10:03:25;759.30;;;705.77;;
1785;SDS011;890;48.158;11.540;2024-01-27T10:05:53;787.73;;;733.57;;
1785;SDS011;890;48.158;11.540;2024-01-27T10:08:21;929.43;;;869.97;;
1785;SDS011;890;48.158;11.540;2024-01-27T10:10:48;951.67;;;891.07;;
1785;SDS011;890;48.158;11.540;2024-01-27T10:13:24;934.13;;;874.60;;
1785;SDS011;890;48.158;11.540;2024-01-27T10:16:05;971.27;;;909.60;;
1785;SDS011;890;48.158;11.540;2024-01-27T10:18:32;986.77;;;924.40;;
1785;SDS011;890;48.158;11.540;2024-01-27T10:20:58;986.97;;;925.60;;
1785;SDS011;890;48.158;11.540;2024-01-27T10:23:25;981.93;;;920.33;;
1785;SDS011;890;48.158;11.540;2024-01-27T10:25:51;954.83;;;894.13;;
1785;SDS011;890;48.158;11.540;2024-01-27T10:28:17;948.90;;;889.37;;
1785;SDS011;890;48.158;11.540;2024-01-27T10:30:44;967.63;;;907.13;;
1785;SDS011;890;48.158;11.540;2024-01-27T10:33:10;983.50;;;923.10;;
1785;SDS011;890;48.158;11.540;2024-01-27T10:35:39;973.27;;;912.90;;
1785;SDS011;890;48.158;11.540;2024-01-27T10:38:08;932.33;;;871.23;;
1785;SDS011;890;48.158;11.540;2024-01-27T10:40:37;924.17;;;866.33;;
1785;SDS011;890;48.158;11.540;2024-01-27T10:43:04;896.20;;;840.80;;
1785;SDS011;890;48.158;11.540;2024-01-27T10:45:42;914.53;;;858.27;;
1785;SDS011;890;48.158;11.540;2024-01-27T10:48:08;930.80;;;873.63;;
1785;SDS011;890;48.158;11.540;2024-01-27T10:50:38;966.53;;;907.77;;
1785;SDS011;890;48.158;11.540;2024-01-27T10:53:08;976.87;;;916.33;;
1785;SDS011;890;48.158;11.540;2024-01-27T10:55:35;1001.33;;;939.87;;
1785;SDS011;890;48.158;11.540;2024-01-27T10:58:03;984.70;;;921.83;;
1785;SDS011;890;48.158;11.540;2024-01-27T11:00:29;926.63;;;868.30;;
1785;SDS011;890;48.158;11.540;2024-01-27T11:03:00;971.93;;;912.73;;
1785;SDS011;890;48.158;11.540;2024-01-27T11:05:27;982.70;;;921.90;;
1785;SDS011;890;48.158;11.540;2024-01-27T11:07:57;958.83;;;899.73;;
1785;SDS011;890;48.158;11.540;2024-01-27T11:10:24;971.27;;;911.20;;
1785;SDS011;890;48.158;11.540;2024-01-27T11:12:51;910.07;;;853.40;;
1785;SDS011;890;48.158;11.540;2024-01-27T11:15:20;781.67;;;733.27;;
1785;SDS011;890;48.158;11.540;2024-01-27T11:17:46;10.83;;;9.73;;
1785;SDS011;890;48.158;11.540;2024-01-27T11:20:12;4.47;;;2.87;;
1785;SDS011;890;48.158;11.540;2024-01-27T11:22:38;7.47;;;3.33;;
1785;SDS011;890;48.158;11.540;2024-01-27T11:27:38;9.37;;;3.83;;
1785;SDS011;890;48.158;11.540;2024-01-27T11:30:05;8.87;;;3.43;;
1785;SDS011;890;48.158;11.540;2024-01-27T11:32:32;35.30;;;32.53;;
1785;SDS011;890;48.158;11.540;2024-01-27T11:35:00;7.87;;;4.07;;
1785;SDS011;890;48.158;11.540;2024-01-27T11:37:30;4.10;;;2.60;;
1785;SDS011;890;48.158;11.540;2024-01-27T11:40:05;4.30;;;2.17;;
1785;SDS011;890;48.158;11.540;2024-01-27T11:42:31;3.50;;;2.27;;
1785;SDS011;890;48.158;11.540;2024-01-27T11:44:57;4.20;;;2.73;;
1785;SDS011;890;48.158;11.540;2024-01-27T11:47:22;8.83;;;3.00;;
1785;SDS011;890;48.158;11.540;2024-01-27T11:49:55;8.13;;;3.37;;
1785;SDS011;890;48.158;11.540;2024-01-27T11:52:22;4.13;;;2.83;;
1785;SDS011;890;48.158;11.540;2024-01-27T11:57:21;7.47;;;3.30;;
1785;SDS011;890;48.158;11.540;2024-01-27T11:59:46;7.30;;;3.73;;
1785;SDS011;890;48.158;11.540;2024-01-27T12:02:12;10.20;;;3.20;;
1785;SDS011;890;48.158;11.540;2024-01-27T12:04:38;3.60;;;2.40;;
1785;SDS011;890;48.158;11.540;2024-01-27T12:07:04;6.33;;;3.07;;
1785;SDS011;890;48.158;11.540;2024-01-27T12:09:30;9.40;;;4.23;;
1785;SDS011;890;48.158;11.540;2024-01-27T12:11:56;5.40;;;3.17;;
1785;SDS011;890;48.158;11.540;2024-01-27T12:14:21;7.30;;;2.90;;
1785;SDS011;890;48.158;11.540;2024-01-27T12:16:47;6.13;;;3.27;;
1785;SDS011;890;48.158;11.540;2024-01-27T12:19:13;4.67;;;2.60;;
1785;SDS011;890;48.158;11.540;2024-01-27T12:21:38;6.50;;;2.50;;
1785;SDS011;890;48.158;11.540;2024-01-27T12:24:16;7.60;;;2.50;;
1785;SDS011;890;48.158;11.540;2024-01-27T12:26:43;11.50;;;3.40;;
1785;SDS011;890;48.158;11.540;2024-01-27T12:29:09;6.60;;;2.63;;
1785;SDS011;890;48.158;11.540;2024-01-27T12:31:35;5.27;;;2.17;;
1785;SDS011;890;48.158;11.540;2024-01-27T12:34:01;2.33;;;1.67;;
1785;SDS011;890;48.158;11.540;2024-01-27T12:36:27;5.60;;;2.70;;
1785;SDS011;890;48.158;11.540;2024-01-27T12:41:21;3.83;;;2.40;;
1785;SDS011;890;48.158;11.540;2024-01-27T12:43:47;3.97;;;2.33;;
1785;SDS011;890;48.158;11.540;2024-01-27T12:46:12;5.10;;;2.77;;
1785;SDS011;890;48.158;11.540;2024-01-27T12:48:40;3.20;;;2.37;;
1785;SDS011;890;48.158;11.540;2024-01-27T12:51:05;6.93;;;2.83;;
1785;SDS011;890;48.158;11.540;2024-01-27T12:53:31;3.80;;;2.57;;
1785;SDS011;890;48.158;11.540;2024-01-27T12:55:56;4.63;;;2.53;;
1785;SDS011;890;48.158;11.540;2024-01-27T12:58:22;4.57;;;2.30;;
1785;SDS011;890;48.158;11.540;2024-01-27T13:00:48;7.10;;;2.80;;
1785;SDS011;890;48.158;11.540;2024-01-27T13:03:14;3.87;;;2.33;;
1785;SDS011;890;48.158;11.540;2024-01-27T13:05:39;4.67;;;2.63;;
1785;SDS011;890;48.158;11.540;2024-01-27T13:08:05;4.47;;;2.33;;
1785;SDS011;890;48.158;11.540;2024-01-27T13:10:33;2.60;;;2.07;;
1785;SDS011;890;48.158;11.540;2024-01-27T13:12:59;4.70;;;2.33;;
1785;SDS011;890;48.158;11.540;2024-01-27T13:15:24;3.33;;;2.20;;
1785;SDS011;890;48.158;11.540;2024-01-27T13:17:51;6.30;;;2.27;;
1785;SDS011;890;48.158;11.540;2024-01-27T13:20:16;6.53;;;2.87;;
1785;SDS011;890;48.158;11.540;2024-01-27T13:22:43;4.30;;;2.03;;
1785;SDS011;890;48.158;11.540;2024-01-27T13:25:09;6.50;;;2.50;;
1785;SDS011;890;48.158;11.540;2024-01-27T13:27:35;2.80;;;2.50;;
1785;SDS011;890;48.158;11.540;2024-01-27T13:30:01;4.87;;;2.20;;
1785;SDS011;890;48.158;11.540;2024-01-27T13:32:27;9.10;;;2.83;;
1785;SDS011;890;48.158;11.540;2024-01-27T13:34:52;5.07;;;2.30;;
1785;SDS011;890;48.158;11.540;2024-01-27T13:37:18;4.63;;;2.83;;
1785;SDS011;890;48.158;11.540;2024-01-27T13:39:44;6.03;;;2.97;;
1785;SDS011;890;48.158;11.540;2024-01-27T13:42:10;5.67;;;2.83;;
1785;SDS011;890;48.158;11.540;2024-01-27T13:44:36;5.83;;;2.70;;
1785;SDS011;890;48.158;11.540;2024-01-27T13:47:02;4.30;;;2.60;;
1785;SDS011;890;48.158;11.540;2024-01-27T13:49:30;5.97;;;2.50;;
1785;SDS011;890;48.158;11.540;2024-01-27T13:51:58;7.80;;;2.87;;
1785;SDS011;890;48.158;11.540;2024-01-27T13:54:24;3.50;;;2.83;;
1785;SDS011;890;48.158;11.540;2024-01-27T13:56:50;6.03;;;3.40;;
1785;SDS011;890;48.158;11.540;2024-01-27T13:59:16;5.00;;;3.60;;
1785;SDS011;890;48.158;11.540;2024-01-27T14:01:41;4.50;;;3.20;;
1785;SDS011;890;48.158;11.540;2024-01-27T14:04:07;5.50;;;3.20;;
1785;SDS011;890;48.158;11.540;2024-01-27T14:06:33;5.80;;;2.73;;
1785;SDS011;890;48.158;11.540;2024-01-27T14:08:59;5.33;;;2.70;;
1785;SDS011;890;48.158;11.540;2024-01-27T14:11:26;4.10;;;2.97;;
1785;SDS011;890;48.158;11.540;2024-01-27T14:13:52;4.77;;;3.30;;
1785;SDS011;890;48.158;11.540;2024-01-27T14:16:18;5.13;;;3.13;;
1785;SDS011;890;48.158;11.540;2024-01-27T14:18:44;7.57;;;3.00;;
1785;SDS011;890;48.158;11.540;2024-01-27T14:21:10;4.07;;;2.63;;
1785;SDS011;890;48.158;11.540;2024-01-27T14:23:36;5.40;;;2.63;;
1785;SDS011;890;48.158;11.540;2024-01-27T14:26:03;3.27;;;2.40;;
1785;SDS011;890;48.158;11.540;2024-01-27T14:28:29;3.80;;;2.53;;
1785;SDS011;890;48.158;11.540;2024-01-27T14:30:54;6.67;;;2.57;;
1785;SDS011;890;48.158;11.540;2024-01-27T14:33:20;7.23;;;3.13;;
1785;SDS011;890;48.158;11.540;2024-01-27T14:35:47;4.30;;;2.67;;
1785;SDS011;890;48.158;11.540;2024-01-27T14:38:13;4.10;;;2.60;;